Time;durP1;ratioP1;P1;durP2;ratioP2;P2;SDS_P1;SDS_P2;PMS_P1;PMS_P2;Temp;Humidity;BMP_temperature;BMP_pressure;BME280_temperature;BME280_humidity;BME280_pressure;Samples;Min_cycle;Max_cycle;Signal;HPM_P1;HPM_P2
2024/03/09 00:00:27;;;;;;;32.90;13.77;;;;;;;;;;5069235;28;20035;-63
2024/03/09 00:02:58;;;;;;;35.42;14.43;;;;;;;;;;5069881;28;20419;-64
2024/03/09 00:05:25;;;;;;;30.90;13.85;;;;;;;;;;5068354;28;20048;-63
2024/03/09 00:07:55;;;;;;;29.08;13.15;;;;;;;;;;5070699;28;20048;-64
2024/03/09 00:10:26;;;;;;;30.42;13.02;;;;;;;;;;5069553;28;20059;-64
2024/03/09 00:12:53;;;;;;;28.70;13.40;;;;;;;;;;5066085;28;20040;-64
2024/03/09 00:15:21;;;;;;;30.85;13.88;;;;;;;;;;5072238;28;20040;-64
2024/03/09 00:17:49;;;;;;;34.95;14.15;;;;;;;;;;5070351;28;20071;-65
2024/03/09 00:20:19;;;;;;;31.05;13.52;;;;;;;;;;5065207;28;20617;-64
2024/03/09 00:22:45;;;;;;;;;;;;;;;;;;5067189;28;20387;-64
2024/03/09 00:25:11;;;;;;;31.10;13.55;;;;;;;;;;5069858;28;20297;-63
2024/03/09 00:27:41;;;;;;;32.30;12.80;;;;;;;;;;5070120;28;20048;-64
2024/03/09 00:30:20;;;;;;;30.10;13.25;;;;;;;;;;5069862;28;20036;-64
2024/03/09 00:32:50;;;;;;;;;;;;;;;;;;5070246;28;20056;-64
2024/03/09 00:35:16;;;;;;;29.48;12.63;;;;;;;;;;5069472;28;19912;-64
2024/03/09 00:37:43;;;;;;;32.10;13.15;;;;;;;;;;5073372;28;20047;-64
2024/03/09 00:40:10;;;;;;;32.67;13.48;;;;;;;;;;5067820;28;20035;-63
2024/03/09 00:42:43;;;;;;;28.85;13.30;;;;;;;;;;5067628;28;20037;-64
2024/03/09 00:45:09;;;;;;;31.90;14.27;;;;;;;;;;5077427;28;20047;-65
2024/03/09 00:47:36;;;;;;;36.45;14.38;;;;;;;;;;5069454;28;20028;-65
2024/03/09 00:50:04;;;;;;;36.40;14.43;;;;;;;;;;5069485;28;20043;-64
2024/03/09 00:52:30;;;;;;;33.17;14.50;;;;;;;;;;5078805;28;20036;-64
2024/03/09 00:54:57;;;;;;;28.40;13.05;;;;;;;;;;5069760;28;20045;-64
2024/03/09 00:57:23;;;;;;;31.23;14.18;;;;;;;;;;5069421;28;20425;-64
2024/03/09 00:59:50;;;;;;;30.77;13.82;;;;;;;;;;5069078;28;20036;-65
2024/03/09 01:02:18;;;;;;;30.10;13.60;;;;;;;;;;5066900;28;20045;-65
2024/03/09 01:04:50;;;;;;;29.00;12.80;;;;;;;;;;5093669;28;20528;-65
2024/03/09 01:07:19;;;;;;;28.25;12.55;;;;;;;;;;5073644;28;20051;-64
2024/03/09 01:09:48;;;;;;;29.17;12.95;;;;;;;;;;5065879;28;20386;-65
2024/03/09 01:12:17;;;;;;;28.58;12.20;;;;;;;;;;5098989;28;20135;-65
2024/03/09 01:14:48;;;;;;;27.70;12.43;;;;;;;;;;5069907;28;20124;-64
2024/03/09 01:17:17;;;;;;;27.58;13.10;;;;;;;;;;5075938;28;20374;-64
2024/03/09 01:19:45;;;;;;;;;;;;;;;;;;5062681;28;20500;-64
2024/03/09 01:22:12;;;;;;;31.15;12.60;;;;;;;;;;5064481;28;19920;-64
2024/03/09 01:24:41;;;;;;;27.20;12.13;;;;;;;;;;5065317;28;20037;-64
2024/03/09 01:27:08;;;;;;;29.60;12.68;;;;;;;;;;5064960;28;20047;-64
2024/03/09 01:29:35;;;;;;;31.73;13.63;;;;;;;;;;5065205;28;20055;-64
2024/03/09 01:32:05;;;;;;;30.35;13.00;;;;;;;;;;5062177;28;20128;-64
2024/03/09 01:34:32;;;;;;;28.63;11.93;;;;;;;;;;5071185;28;20055;-64
2024/03/09 01:36:58;;;;;;;29.13;13.20;;;;;;;;;;5064975;28;20037;-64
2024/03/09 01:39:25;;;;;;;28.52;12.45;;;;;;;;;;5073088;28;20045;-64
2024/03/09 01:41:51;;;;;;;33.47;14.48;;;;;;;;;;5068863;28;20028;-64
2024/03/09 01:44:17;;;;;;;32.67;13.18;;;;;;;;;;5070142;28;20055;-64
2024/03/09 01:46:46;;;;;;;32.65;13.80;;;;;;;;;;5073696;28;20055;-64
2024/03/09 01:49:12;;;;;;;27.13;12.52;;;;;;;;;;5068671;28;20061;-64
2024/03/09 01:51:40;;;;;;;32.83;13.57;;;;;;;;;;5071856;28;20473;-64
2024/03/09 01:54:10;;;;;;;30.58;12.75;;;;;;;;;;5069678;28;20056;-64
2024/03/09 01:56:37;;;;;;;30.98;13.93;;;;;;;;;;5072399;28;20054;-64
2024/03/09 01:59:07;;;;;;;31.55;13.55;;;;;;;;;;5064646;28;20047;-64
2024/03/09 02:01:36;;;;;;;34.38;14.40;;;;;;;;;;5074108;28;20061;-64
2024/03/09 02:04:04;;;;;;;32.42;14.52;;;;;;;;;;5071215;28;20044;-65
2024/03/09 02:06:32;;;;;;;36.97;14.80;;;;;;;;;;5068179;28;20461;-64
2024/03/09 02:08:59;;;;;;;35.75;15.10;;;;;;;;;;5066987;28;20040;-64
2024/03/09 02:11:30;;;;;;;36.00;14.73;;;;;;;;;;5064663;28;20072;-65
2024/03/09 02:13:56;;;;;;;35.42;14.15;;;;;;;;;;5068494;28;20055;-64
2024/03/09 02:16:23;;;;;;;30.40;12.68;;;;;;;;;;5066712;28;20052;-66
2024/03/09 02:18:49;;;;;;;36.30;14.48;;;;;;;;;;5058937;28;20049;-65
2024/03/09 02:21:16;;;;;;;35.38;14.30;;;;;;;;;;5056940;28;20032;-65
2024/03/09 02:23:47;;;;;;;33.45;15.07;;;;;;;;;;5067685;28;20059;-65
2024/03/09 02:26:16;;;;;;;32.85;14.23;;;;;;;;;;5067711;28;20048;-66
2024/03/09 02:29:00;;;;;;;30.83;14.02;;;;;;;;;;5071270;28;20059;-65
2024/03/09 02:31:27;;;;;;;33.50;14.43;;;;;;;;;;5069144;28;20052;-65
2024/03/09 02:33:55;;;;;;;35.53;13.93;;;;;;;;;;5065955;28;20032;-65
2024/03/09 02:36:26;;;;;;;39.50;15.05;;;;;;;;;;5061941;28;20497;-65
2024/03/09 02:38:52;;;;;;;30.98;14.13;;;;;;;;;;5077109;28;20047;-65
2024/03/09 02:41:19;;;;;;;36.88;14.90;;;;;;;;;;5073591;28;20078;-66
2024/03/09 02:43:49;;;;;;;33.85;14.10;;;;;;;;;;5080262;28;20028;-65
2024/03/09 02:46:15;;;;;;;33.03;14.75;;;;;;;;;;5076608;28;20040;-65
2024/03/09 02:48:43;;;;;;;31.45;13.82;;;;;;;;;;5068754;28;20056;-65
2024/03/09 02:51:13;;;;;;;31.45;14.00;;;;;;;;;;5072402;28;20044;-64
2024/03/09 02:53:40;;;;;;;32.85;14.13;;;;;;;;;;5058144;28;20037;-65
2024/03/09 02:56:16;;;;;;;33.20;14.75;;;;;;;;;;5067250;28;20052;-65
2024/03/09 02:58:42;;;;;;;35.03;15.02;;;;;;;;;;5064854;28;20390;-65
2024/03/09 03:01:10;;;;;;;31.50;14.30;;;;;;;;;;5069712;28;20043;-64
2024/03/09 03:06:36;;;;;;;31.48;14.05;;;;;;;;;;5053306;28;20060;-64
2024/03/09 03:09:15;;;;;;;31.60;13.73;;;;;;;;;;5064853;28;20520;-66
2024/03/09 03:11:42;;;;;;;27.67;12.80;;;;;;;;;;5075445;28;20045;-65
2024/03/09 03:14:09;;;;;;;35.63;14.63;;;;;;;;;;5071309;28;20111;-65
2024/03/09 03:16:38;;;;;;;35.15;15.52;;;;;;;;;;5076352;28;20045;-65
2024/03/09 03:19:06;;;;;;;37.63;15.57;;;;;;;;;;5067970;28;20045;-65
2024/03/09 03:21:36;;;;;;;30.88;14.38;;;;;;;;;;5058186;28;20414;-64
2024/03/09 03:24:02;;;;;;;32.30;15.63;;;;;;;;;;5067387;28;20051;-64
2024/03/09 03:26:31;;;;;;;32.72;14.23;;;;;;;;;;5067728;28;20045;-64
2024/03/09 03:29:01;;;;;;;30.08;13.73;;;;;;;;;;5061725;28;20393;-63
2024/03/09 03:31:28;;;;;;;34.35;14.63;;;;;;;;;;5070298;28;20490;-64
2024/03/09 03:33:56;;;;;;;33.13;15.02;;;;;;;;;;5061974;28;20048;-65
2024/03/09 03:36:23;;;;;;;31.55;13.43;;;;;;;;;;5073764;28;20053;-64
2024/03/09 03:38:50;;;;;;;36.85;15.25;;;;;;;;;;5080963;28;20027;-65
2024/03/09 03:41:18;;;;;;;34.22;14.50;;;;;;;;;;5075636;28;20039;-64
2024/03/09 03:43:44;;;;;;;32.33;14.82;;;;;;;;;;5077467;28;20489;-64
2024/03/09 03:46:13;;;;;;;27.92;13.45;;;;;;;;;;5078749;28;20055;-64
2024/03/09 03:48:40;;;;;;;32.00;14.70;;;;;;;;;;5079529;28;20044;-64
2024/03/09 03:51:12;;;;;;;31.88;14.27;;;;;;;;;;5068555;28;20117;-64
2024/03/09 03:53:39;;;;;;;34.53;14.30;;;;;;;;;;5071486;28;20052;-65
2024/03/09 03:56:07;;;;;;;32.42;14.68;;;;;;;;;;5074524;28;20028;-65
2024/03/09 03:58:39;;;;;;;29.98;13.48;;;;;;;;;;5070519;28;20056;-65
2024/03/09 04:01:06;;;;;;;33.33;14.48;;;;;;;;;;5075972;28;20044;-65
2024/03/09 04:03:32;;;;;;;33.58;15.27;;;;;;;;;;5071737;28;20403;-65
2024/03/09 04:06:02;;;;;;;34.30;14.82;;;;;;;;;;5076897;28;20043;-65
2024/03/09 04:08:28;;;;;;;30.02;13.95;;;;;;;;;;5069797;28;20066;-65
2024/03/09 04:10:55;;;;;;;32.10;14.35;;;;;;;;;;5079894;28;20032;-65
2024/03/09 04:13:23;;;;;;;30.25;14.48;;;;;;;;;;5068181;28;20036;-65
2024/03/09 04:15:51;;;;;;;31.52;13.35;;;;;;;;;;5073729;28;20041;-65
2024/03/09 04:18:18;;;;;;;29.27;13.52;;;;;;;;;;5068312;28;20032;-64
2024/03/09 04:20:45;;;;;;;36.35;14.82;;;;;;;;;;5072231;28;20041;-65
2024/03/09 04:23:15;;;;;;;36.13;15.18;;;;;;;;;;5066951;28;20040;-64
2024/03/09 04:25:46;;;;;;;38.00;15.48;;;;;;;;;;5061005;28;20040;-65
2024/03/09 04:28:16;;;;;;;32.92;15.40;;;;;;;;;;5063039;28;20051;-65
2024/03/09 04:30:45;;;;;;;;;;;;;;;;;;5070155;28;20037;-64
2024/03/09 04:33:11;;;;;;;32.25;14.75;;;;;;;;;;5061709;28;19912;-64
2024/03/09 04:35:38;;;;;;;30.88;13.98;;;;;;;;;;5075069;28;20107;-64
2024/03/09 04:38:05;;;;;;;30.58;14.70;;;;;;;;;;5075964;28;20418;-64
2024/03/09 04:40:33;;;;;;;29.05;13.68;;;;;;;;;;5066445;28;20064;-64
2024/03/09 04:43:03;;;;;;;33.30;14.50;;;;;;;;;;5073056;28;20040;-64
2024/03/09 04:45:31;;;;;;;34.65;14.90;;;;;;;;;;5079339;28;20049;-66
2024/03/09 04:48:01;;;;;;;37.75;15.20;;;;;;;;;;5074245;28;20055;-64
2024/03/09 04:50:28;;;;;;;30.52;14.32;;;;;;;;;;5067009;28;20059;-65
2024/03/09 04:52:55;;;;;;;34.95;15.23;;;;;;;;;;5072746;28;20044;-65
2024/03/09 04:55:27;;;;;;;31.73;14.25;;;;;;;;;;5069242;28;20555;-65
2024/03/09 04:57:54;;;;;;;31.00;13.43;;;;;;;;;;5072506;28;20032;-65
2024/03/09 05:00:21;;;;;;;31.90;14.10;;;;;;;;;;5067063;28;20064;-65
2024/03/09 05:02:48;;;;;;;29.58;13.98;;;;;;;;;;5076698;28;20051;-65
2024/03/09 05:05:18;;;;;;;32.63;13.75;;;;;;;;;;5073620;28;20063;-65
2024/03/09 05:07:46;;;;;;;31.13;13.57;;;;;;;;;;5067937;28;20048;-64
2024/03/09 05:10:17;;;;;;;33.58;13.60;;;;;;;;;;5070475;28;20378;-65
2024/03/09 05:12:53;;;;;;;35.28;13.82;;;;;;;;;;5066284;28;20045;-65
2024/03/09 05:15:20;;;;;;;32.20;12.95;;;;;;;;;;5068155;28;20049;-64
2024/03/09 05:17:46;;;;;;;31.70;14.15;;;;;;;;;;5071214;28;20040;-65
2024/03/09 05:20:19;;;;;;;30.77;12.93;;;;;;;;;;5067228;28;20040;-65
2024/03/09 05:22:48;;;;;;;32.15;13.55;;;;;;;;;;5059222;28;20043;-65
2024/03/09 05:25:14;;;;;;;29.75;12.02;;;;;;;;;;5063384;28;20525;-67
2024/03/09 05:27:42;;;;;;;26.75;12.57;;;;;;;;;;5067288;28;20044;-64
2024/03/09 05:30:17;;;;;;;30.52;12.98;;;;;;;;;;5068962;28;20413;-63
2024/03/09 05:32:54;;;;;;;30.77;12.80;;;;;;;;;;5069209;28;20032;-63
2024/03/09 05:35:21;;;;;;;31.83;13.00;;;;;;;;;;5067380;28;20063;-64
2024/03/09 05:37:49;;;;;;;25.23;12.05;;;;;;;;;;5068473;28;20056;-64
2024/03/09 05:40:16;;;;;;;24.70;10.68;;;;;;;;;;5072451;28;20039;-64
2024/03/09 05:42:43;;;;;;;26.73;10.65;;;;;;;;;;5066998;28;20040;-64
2024/03/09 05:45:17;;;;;;;29.08;11.55;;;;;;;;;;5078335;28;20054;-64
2024/03/09 05:47:47;;;;;;;24.23;11.18;;;;;;;;;;5066867;28;20059;-64
2024/03/09 05:50:15;;;;;;;24.02;10.60;;;;;;;;;;5078495;28;20480;-64
2024/03/09 05:52:48;;;;;;;27.90;12.20;;;;;;;;;;5064709;28;20440;-64
2024/03/09 05:55:16;;;;;;;27.15;11.82;;;;;;;;;;5065322;28;20041;-64
2024/03/09 05:57:43;;;;;;;23.55;11.02;;;;;;;;;;5073934;28;20032;-63
2024/03/09 06:00:10;;;;;;;25.48;10.90;;;;;;;;;;5072267;28;20415;-64
2024/03/09 06:02:42;;;;;;;23.02;10.18;;;;;;;;;;5068470;28;20082;-64
2024/03/09 06:05:09;;;;;;;25.25;11.23;;;;;;;;;;5066144;28;20048;-63
2024/03/09 06:07:37;;;;;;;26.85;11.40;;;;;;;;;;5066965;28;20040;-61
2024/03/09 06:10:07;;;;;;;25.83;11.77;;;;;;;;;;5068162;28;20048;-61
2024/03/09 06:12:38;;;;;;;32.03;11.73;;;;;;;;;;5070722;28;20041;-64
2024/03/09 06:15:07;;;;;;;36.17;14.27;;;;;;;;;;5075906;28;20036;-60
2024/03/09 06:17:34;;;;;;;39.97;17.40;;;;;;;;;;5069430;28;20051;-62
2024/03/09 06:20:02;;;;;;;36.28;17.45;;;;;;;;;;5074682;28;20040;-62
2024/03/09 06:22:33;;;;;;;43.28;17.92;;;;;;;;;;5073367;28;20057;-61
2024/03/09 06:25:00;;;;;;;40.50;18.50;;;;;;;;;;5073370;28;20055;-61
2024/03/09 06:27:27;;;;;;;37.35;18.10;;;;;;;;;;5065856;28;20056;-60
2024/03/09 06:29:57;;;;;;;38.05;17.55;;;;;;;;;;5068110;28;20059;-61
2024/03/09 06:32:25;;;;;;;35.00;18.13;;;;;;;;;;5072522;28;20421;-61
2024/03/09 06:34:53;;;;;;;44.08;21.25;;;;;;;;;;5067270;28;20040;-60
2024/03/09 06:37:19;;;;;;;48.28;23.88;;;;;;;;;;5073651;28;20033;-59
2024/03/09 06:39:45;;;;;;;49.88;24.10;;;;;;;;;;5076452;28;20413;-61
2024/03/09 06:42:11;;;;;;;54.83;24.48;;;;;;;;;;5069797;28;20032;-60
2024/03/09 06:44:38;;;;;;;54.72;26.88;;;;;;;;;;5068920;28;20048;-60
2024/03/09 06:47:06;;;;;;;60.83;29.10;;;;;;;;;;5095478;28;20040;-61
2024/03/09 06:49:36;;;;;;;55.67;27.92;;;;;;;;;;5069938;28;20067;-60
2024/03/09 06:52:02;;;;;;;57.92;26.58;;;;;;;;;;5065563;28;20051;-60
2024/03/09 06:54:29;;;;;;;57.38;25.85;;;;;;;;;;5069347;28;20053;-61
2024/03/09 06:56:56;;;;;;;54.08;23.15;;;;;;;;;;5069873;28;20036;-61
2024/03/09 06:59:22;;;;;;;43.47;20.38;;;;;;;;;;5065930;28;20044;-62
2024/03/09 07:02:01;;;;;;;48.83;21.27;;;;;;;;;;5071284;28;20032;-61
2024/03/09 07:04:27;;;;;;;43.08;21.67;;;;;;;;;;5064732;28;20051;-61
2024/03/09 07:06:53;;;;;;;51.60;23.42;;;;;;;;;;5074570;28;20412;-61
2024/03/09 07:09:20;;;;;;;27.38;11.98;;;;;;;;;;5072920;28;20046;-60
2024/03/09 07:11:46;;;;;;;28.58;13.70;;;;;;;;;;5071273;28;20401;-61
2024/03/09 07:14:13;;;;;;;45.50;20.80;;;;;;;;;;5074798;28;20029;-63
2024/03/09 07:16:39;;;;;;;41.78;19.38;;;;;;;;;;5073640;28;20043;-61
2024/03/09 07:19:05;;;;;;;45.63;21.23;;;;;;;;;;5079817;28;20043;-61
2024/03/09 07:21:33;;;;;;;47.42;21.77;;;;;;;;;;5070457;28;20041;-62
2024/03/09 07:24:00;;;;;;;45.15;21.65;;;;;;;;;;5069178;28;20044;-61
2024/03/09 07:26:27;;;;;;;43.60;20.80;;;;;;;;;;5070901;28;20060;-62
2024/03/09 07:28:54;;;;;;;41.33;18.15;;;;;;;;;;5069065;28;20051;-61
2024/03/09 07:31:25;;;;;;;38.88;17.02;;;;;;;;;;5071264;28;20048;-61
2024/03/09 07:33:53;;;;;;;35.95;16.15;;;;;;;;;;5074866;28;20048;-63
2024/03/09 07:36:22;;;;;;;35.95;15.95;;;;;;;;;;5078759;28;20062;-61
2024/03/09 07:38:49;;;;;;;;;;;;;;;;;;5071907;28;20528;-61
2024/03/09 07:41:22;;;;;;;33.55;15.57;;;;;;;;;;5066401;28;20444;-61
2024/03/09 07:43:48;;;;;;;41.80;19.15;;;;;;;;;;5092694;28;20048;-60
2024/03/09 07:46:15;;;;;;;38.30;17.45;;;;;;;;;;5068416;28;20047;-61
2024/03/09 07:48:41;;;;;;;30.35;13.63;;;;;;;;;;5079311;28;20045;-61
2024/03/09 07:51:10;;;;;;;25.83;10.82;;;;;;;;;;5067942;28;20088;-61
2024/03/09 07:53:38;;;;;;;23.08;9.75;;;;;;;;;;5076832;28;20056;-61
2024/03/09 07:56:05;;;;;;;23.08;10.63;;;;;;;;;;5077207;28;20040;-62
2024/03/09 07:58:31;;;;;;;21.80;10.10;;;;;;;;;;5068240;28;20051;-62
2024/03/09 08:00:57;;;;;;;28.30;11.10;;;;;;;;;;5069583;28;20052;-61
2024/03/09 08:03:23;;;;;;;28.02;11.88;;;;;;;;;;5069421;28;20064;-62
2024/03/09 08:05:50;;;;;;;25.67;10.68;;;;;;;;;;5070855;28;20441;-61
2024/03/09 08:08:17;;;;;;;24.77;11.35;;;;;;;;;;5071651;28;20048;-62
2024/03/09 08:10:52;;;;;;;23.63;10.45;;;;;;;;;;5070747;28;20048;-61
2024/03/09 08:13:22;;;;;;;21.80;10.02;;;;;;;;;;5063200;28;20510;-62
2024/03/09 08:15:49;;;;;;;21.25;9.75;;;;;;;;;;5075169;28;20044;-63
2024/03/09 08:18:15;;;;;;;20.83;9.45;;;;;;;;;;5067943;28;20422;-62
2024/03/09 08:20:41;;;;;;;22.50;9.48;;;;;;;;;;5073786;28;20052;-62
2024/03/09 08:23:07;;;;;;;22.83;10.00;;;;;;;;;;5063181;28;20045;-61
2024/03/09 08:25:33;;;;;;;23.38;10.10;;;;;;;;;;5062178;28;20037;-62
2024/03/09 08:28:00;;;;;;;20.45;9.85;;;;;;;;;;5066095;28;20045;-61
2024/03/09 08:30:26;;;;;;;24.33;9.40;;;;;;;;;;5069477;28;20044;-64
2024/03/09 08:32:58;;;;;;;31.95;15.65;;;;;;;;;;5063782;28;20064;-61
2024/03/09 08:35:27;;;;;;;33.50;15.93;;;;;;;;;;5076910;28;20402;-62
2024/03/09 08:37:54;;;;;;;39.00;16.10;;;;;;;;;;5065855;28;20397;-63
2024/03/09 08:40:30;;;;;;;34.47;15.82;;;;;;;;;;5068685;28;20051;-62
2024/03/09 08:42:56;;;;;;;34.33;14.93;;;;;;;;;;5067290;28;20036;-62
2024/03/09 08:45:24;;;;;;;33.92;16.23;;;;;;;;;;5069422;28;20052;-62
2024/03/09 08:47:52;;;;;;;34.38;16.65;;;;;;;;;;5072883;28;20677;-62
2024/03/09 08:50:19;;;;;;;29.98;15.80;;;;;;;;;;5065775;28;20049;-62
2024/03/09 08:52:45;;;;;;;32.63;16.10;;;;;;;;;;5081271;28;20416;-62
2024/03/09 08:55:11;;;;;;;29.13;13.68;;;;;;;;;;5076382;28;20389;-61
2024/03/09 08:57:42;;;;;;;27.02;13.77;;;;;;;;;;5076740;28;20520;-62
2024/03/09 09:00:09;;;;;;;25.13;12.43;;;;;;;;;;5068023;28;21472;-65
2024/03/09 09:02:38;;;;;;;25.95;13.18;;;;;;;;;;5093341;28;20051;-62
2024/03/09 09:05:14;;;;;;;26.50;12.97;;;;;;;;;;5071821;28;20051;-63
2024/03/09 09:07:41;;;;;;;26.58;12.43;;;;;;;;;;5069930;28;20723;-63
2024/03/09 09:10:12;;;;;;;24.83;12.57;;;;;;;;;;5069363;28;20040;-62
2024/03/09 09:12:42;;;;;;;29.38;14.35;;;;;;;;;;5071988;28;20032;-62
2024/03/09 09:15:09;;;;;;;29.50;13.65;;;;;;;;;;5073174;28;20040;-63
2024/03/09 09:17:35;;;;;;;27.95;14.05;;;;;;;;;;5068528;28;20044;-63
2024/03/09 09:20:04;;;;;;;24.98;13.43;;;;;;;;;;5073755;28;20037;-63
2024/03/09 09:22:30;;;;;;;30.48;13.95;;;;;;;;;;5065207;28;20041;-64
2024/03/09 09:24:56;;;;;;;26.30;13.57;;;;;;;;;;5074010;28;20047;-63
2024/03/09 09:27:25;;;;;;;27.40;13.23;;;;;;;;;;5067556;28;20413;-63
2024/03/09 09:29:51;;;;;;;26.40;13.32;;;;;;;;;;5084623;28;20052;-63
2024/03/09 09:32:17;;;;;;;24.83;13.05;;;;;;;;;;5080884;28;20110;-63
2024/03/09 09:34:44;;;;;;;25.88;13.18;;;;;;;;;;5071589;28;20414;-63
2024/03/09 09:37:12;;;;;;;28.83;14.93;;;;;;;;;;5068389;28;20039;-63
2024/03/09 09:39:39;;;;;;;35.88;17.67;;;;;;;;;;5070518;28;20052;-63
2024/03/09 09:42:05;;;;;;;30.55;15.65;;;;;;;;;;5095836;28;20059;-62
2024/03/09 09:44:31;;;;;;;30.38;16.23;;;;;;;;;;5065248;28;20569;-62
2024/03/09 09:46:58;;;;;;;32.08;14.90;;;;;;;;;;5078580;28;20135;-62
2024/03/09 09:49:26;;;;;;;31.75;16.48;;;;;;;;;;5079179;28;20408;-62
2024/03/09 09:51:58;;;;;;;29.70;15.70;;;;;;;;;;5083714;28;20044;-63
2024/03/09 09:54:28;;;;;;;32.70;16.17;;;;;;;;;;5064948;28;20060;-62
2024/03/09 09:56:56;;;;;;;35.25;17.55;;;;;;;;;;5065335;28;20052;-62
2024/03/09 09:59:25;;;;;;;29.08;14.95;;;;;;;;;;5063603;28;20437;-63
2024/03/09 10:01:52;;;;;;;28.92;14.18;;;;;;;;;;5066998;28;20504;-62
2024/03/09 10:04:19;;;;;;;27.17;14.23;;;;;;;;;;5072744;28;20044;-63
2024/03/09 10:06:47;;;;;;;31.45;14.00;;;;;;;;;;5071369;28;20055;-61
2024/03/09 10:09:31;;;;;;;24.97;13.10;;;;;;;;;;5069666;28;20529;-63
2024/03/09 10:11:57;;;;;;;24.38;13.55;;;;;;;;;;5067374;28;20047;-62
2024/03/09 10:14:29;;;;;;;23.83;13.55;;;;;;;;;;5065441;28;20036;-63
2024/03/09 10:17:01;;;;;;;28.23;13.30;;;;;;;;;;5070265;28;20040;-62
2024/03/09 10:19:27;;;;;;;31.38;13.13;;;;;;;;;;5063939;28;20052;-62
2024/03/09 10:21:53;;;;;;;24.45;13.35;;;;;;;;;;5065979;28;20036;-63
2024/03/09 10:24:19;;;;;;;25.05;12.77;;;;;;;;;;5065413;28;20049;-63
2024/03/09 10:26:45;;;;;;;30.05;13.90;;;;;;;;;;5068278;28;20104;-63
2024/03/09 10:29:13;;;;;;;24.25;12.32;;;;;;;;;;5062768;28;20504;-63
2024/03/09 10:31:43;;;;;;;22.85;12.20;;;;;;;;;;5064546;28;20040;-63
2024/03/09 10:34:12;;;;;;;19.50;11.43;;;;;;;;;;5067559;28;20047;-63
2024/03/09 10:36:39;;;;;;;23.73;11.88;;;;;;;;;;5069789;28;20055;-63
2024/03/09 10:39:05;;;;;;;19.25;10.07;;;;;;;;;;5079504;28;20398;-63
2024/03/09 10:41:35;;;;;;;9.65;5.78;;;;;;;;;;5068660;28;20055;-63
2024/03/09 10:44:03;;;;;;;10.18;5.38;;;;;;;;;;5067876;28;20123;-63
2024/03/09 10:46:32;;;;;;;9.20;5.20;;;;;;;;;;5069505;28;20053;-63
2024/03/09 10:48:58;;;;;;;7.18;4.80;;;;;;;;;;5071739;28;20068;-63
2024/03/09 10:51:27;;;;;;;9.02;4.93;;;;;;;;;;5071183;28;20044;-63
2024/03/09 10:54:30;;;;;;;6.70;3.97;;;;;;;;;;5061950;28;20045;-63
2024/03/09 10:56:58;;;;;;;6.57;3.97;;;;;;;;;;5031767;28;20041;-63
2024/03/09 10:59:27;;;;;;;8.77;4.18;;;;;;;;;;5067453;28;20049;-62
2024/03/09 11:01:55;;;;;;;6.82;3.90;;;;;;;;;;5069119;28;20040;-63
2024/03/09 11:04:24;;;;;;;6.78;3.97;;;;;;;;;;5056458;28;20055;-64
2024/03/09 11:06:50;;;;;;;6.13;3.75;;;;;;;;;;5072813;28;20058;-62
2024/03/09 11:09:29;;;;;;;6.45;3.50;;;;;;;;;;5077027;28;20024;-63
2024/03/09 11:12:04;;;;;;;5.47;3.00;;;;;;;;;;5069263;28;20036;-63
2024/03/09 11:14:33;;;;;;;8.25;3.70;;;;;;;;;;5066787;28;20041;-64
2024/03/09 11:17:00;;;;;;;7.35;3.20;;;;;;;;;;5079120;28;20028;-63
2024/03/09 11:19:29;;;;;;;7.70;4.57;;;;;;;;;;5074995;28;20056;-63
2024/03/09 11:21:56;;;;;;;;;;;;;;;;;;5059430;28;20374;-63
2024/03/09 11:24:29;;;;;;;9.10;5.32;;;;;;;;;;5066498;28;19919;-64
2024/03/09 11:26:57;;;;;;;7.45;4.47;;;;;;;;;;5065726;28;20671;-63
2024/03/09 11:29:29;;;;;;;9.67;4.83;;;;;;;;;;5069578;28;20075;-63
2024/03/09 11:32:03;;;;;;;8.40;4.20;;;;;;;;;;5070414;28;20039;-64
2024/03/09 11:34:29;;;;;;;8.23;4.82;;;;;;;;;;5065425;28;20646;-64
2024/03/09 11:36:57;;;;;;;8.82;5.13;;;;;;;;;;5066817;28;20040;-63
2024/03/09 11:39:32;;;;;;;7.82;4.78;;;;;;;;;;5070692;28;20059;-63
2024/03/09 11:42:00;;;;;;;9.77;4.85;;;;;;;;;;5079667;28;20040;-63
2024/03/09 11:44:36;;;;;;;7.63;4.18;;;;;;;;;;5066130;28;20059;-63
2024/03/09 11:47:06;;;;;;;14.77;4.40;;;;;;;;;;5069927;28;20052;-63
2024/03/09 11:49:33;;;;;;;10.15;4.20;;;;;;;;;;5076228;28;20107;-63
2024/03/09 11:52:02;;;;;;;4.88;2.75;;;;;;;;;;5075912;28;20055;-63
2024/03/09 11:54:29;;;;;;;5.00;2.95;;;;;;;;;;5070905;28;20532;-63
2024/03/09 11:56:56;;;;;;;14.95;4.30;;;;;;;;;;5070075;28;20064;-62
2024/03/09 11:59:23;;;;;;;5.60;3.63;;;;;;;;;;5069813;28;20068;-62
2024/03/09 12:01:58;;;;;;;5.72;3.45;;;;;;;;;;5069450;28;20040;-62
2024/03/09 12:04:26;;;;;;;13.75;3.72;;;;;;;;;;5074012;28;20401;-62
2024/03/09 12:06:53;;;;;;;7.43;3.40;;;;;;;;;;5067674;28;20040;-61
2024/03/09 12:09:19;;;;;;;10.55;3.40;;;;;;;;;;5072556;28;20056;-63
2024/03/09 12:11:48;;;;;;;5.22;3.45;;;;;;;;;;5078045;28;20063;-63
2024/03/09 12:14:15;;;;;;;6.20;3.60;;;;;;;;;;5068586;28;20117;-62
2024/03/09 12:16:43;;;;;;;5.53;3.03;;;;;;;;;;5074808;28;20051;-63
2024/03/09 12:19:12;;;;;;;5.75;3.45;;;;;;;;;;5077677;28;20036;-63
2024/03/09 12:21:39;;;;;;;5.05;3.30;;;;;;;;;;5068409;28;20048;-64
2024/03/09 12:24:08;;;;;;;5.03;3.47;;;;;;;;;;5070551;28;20036;-63
2024/03/09 12:26:36;;;;;;;7.47;3.97;;;;;;;;;;5070557;28;20036;-64
2024/03/09 12:29:05;;;;;;;6.65;3.67;;;;;;;;;;5069623;28;20123;-64
2024/03/09 12:31:33;;;;;;;7.97;4.22;;;;;;;;;;5069243;28;20037;-64
2024/03/09 12:33:59;;;;;;;6.82;3.90;;;;;;;;;;5093049;28;20457;-64
2024/03/09 12:36:26;;;;;;;7.93;3.90;;;;;;;;;;5072403;28;20409;-63
2024/03/09 12:39:07;;;;;;;7.20;4.35;;;;;;;;;;5076508;28;20044;-64
2024/03/09 12:41:33;;;;;;;8.43;3.70;;;;;;;;;;5068022;28;20052;-64
2024/03/09 12:44:03;;;;;;;6.15;4.30;;;;;;;;;;5079569;28;20028;-64
2024/03/09 12:46:32;;;;;;;6.40;4.13;;;;;;;;;;5070668;28;20056;-64
2024/03/09 12:49:13;;;;;;;6.55;4.30;;;;;;;;;;5065424;28;20045;-63
2024/03/09 12:51:46;;;;;;;7.05;3.60;;;;;;;;;;5069654;28;20032;-63
2024/03/09 12:54:12;;;;;;;5.57;3.85;;;;;;;;;;5075522;28;20054;-64
2024/03/09 12:56:40;;;;;;;5.63;3.63;;;;;;;;;;5068089;28;20039;-63
2024/03/09 12:59:15;;;;;;;7.13;3.83;;;;;;;;;;5063764;28;20055;-65
2024/03/09 13:01:44;;;;;;;8.57;3.85;;;;;;;;;;5087985;28;20047;-65
2024/03/09 13:04:11;;;;;;;5.28;3.28;;;;;;;;;;5068060;28;20128;-65
2024/03/09 13:06:41;;;;;;;7.93;3.95;;;;;;;;;;5068924;28;20048;-65
2024/03/09 13:09:11;;;;;;;7.93;3.50;;;;;;;;;;5074297;28;20043;-64
2024/03/09 13:11:41;;;;;;;8.52;3.33;;;;;;;;;;5066958;28;20040;-64
2024/03/09 13:14:07;;;;;;;5.20;3.30;;;;;;;;;;5069158;28;20040;-64
2024/03/09 13:16:33;;;;;;;4.80;3.13;;;;;;;;;;5076827;28;20043;-63
2024/03/09 13:19:00;;;;;;;4.78;3.17;;;;;;;;;;5070471;28;20047;-64
2024/03/09 13:21:29;;;;;;;5.50;2.42;;;;;;;;;;5068206;28;20048;-63
2024/03/09 13:23:57;;;;;;;6.68;3.13;;;;;;;;;;5066865;28;20028;-63
2024/03/09 13:26:25;;;;;;;6.00;3.05;;;;;;;;;;5075888;28;20044;-64
2024/03/09 13:28:52;;;;;;;4.72;2.40;;;;;;;;;;5074712;28;20040;-65
2024/03/09 13:31:22;;;;;;;5.93;2.92;;;;;;;;;;5067085;28;20044;-66
2024/03/09 13:33:49;;;;;;;4.85;2.80;;;;;;;;;;5069868;28;20044;-63
2024/03/09 13:36:16;;;;;;;4.20;2.85;;;;;;;;;;5066301;28;20055;-64
2024/03/09 13:38:47;;;;;;;4.80;2.80;;;;;;;;;;5069505;28;20032;-64
2024/03/09 13:41:15;;;;;;;4.60;3.05;;;;;;;;;;5063433;28;20033;-63
2024/03/09 13:43:43;;;;;;;5.65;3.53;;;;;;;;;;5067221;28;20036;-63
2024/03/09 13:46:13;;;;;;;5.10;2.73;;;;;;;;;;5077658;28;20401;-63
2024/03/09 13:48:42;;;;;;;5.18;2.97;;;;;;;;;;5047274;28;20043;-63
2024/03/09 13:51:12;;;;;;;6.50;2.95;;;;;;;;;;5067117;28;20036;-64
2024/03/09 13:53:45;;;;;;;3.88;2.60;;;;;;;;;;5066243;28;20067;-63
2024/03/09 13:56:16;;;;;;;3.90;2.55;;;;;;;;;;5076596;28;20062;-64
2024/03/09 13:58:47;;;;;;;4.85;2.70;;;;;;;;;;5064928;28;20028;-63
2024/03/09 14:01:16;;;;;;;4.18;2.63;;;;;;;;;;5063604;28;20067;-62
2024/03/09 14:03:46;;;;;;;4.30;2.70;;;;;;;;;;5053673;28;20035;-63
2024/03/09 14:06:21;;;;;;;4.35;2.72;;;;;;;;;;5073430;28;20405;-63
2024/03/09 14:08:54;;;;;;;4.15;2.70;;;;;;;;;;5067973;28;20041;-62
2024/03/09 14:11:21;;;;;;;5.93;3.70;;;;;;;;;;5060846;28;20051;-63
2024/03/09 14:13:50;;;;;;;4.25;2.90;;;;;;;;;;5072454;28;20051;-66
2024/03/09 14:16:18;;;;;;;4.15;2.50;;;;;;;;;;5076496;28;20052;-63
2024/03/09 14:18:50;;;;;;;3.90;2.50;;;;;;;;;;5072083;28;20047;-63
2024/03/09 14:21:18;;;;;;;9.77;2.63;;;;;;;;;;5067878;28;20032;-64
2024/03/09 14:23:46;;;;;;;4.90;2.90;;;;;;;;;;5065137;28;20036;-63
2024/03/09 14:26:12;;;;;;;5.35;2.65;;;;;;;;;;5072221;28;20036;-64
2024/03/09 14:28:39;;;;;;;5.43;2.88;;;;;;;;;;5078144;28;20445;-63
2024/03/09 14:31:15;;;;;;;3.83;2.70;;;;;;;;;;5081287;28;20035;-64
2024/03/09 14:33:43;;;;;;;6.18;3.13;;;;;;;;;;5073732;28;20039;-63
2024/03/09 14:36:13;;;;;;;4.85;3.30;;;;;;;;;;5069814;28;20037;-64